West Wendover, Nevada
Current Conditions -  °F | °C
As of 1:15 PM on Sunday 21 Dec 2014 (Local Time) from KENV Reporting Station
Overcast Overcast  
Wind Chill: 55°   Ceiling: 6000
Heat Index: 55°   Visibility: 10mi
Dew Point: 39°   Wind: 23mph
Humidity: 54%   Direction: 270°W
Pressure: 29.94"   Gusts: 28mph
Location:  40.74°N, 114.07°W
Report Text: KENV 212015Z AUTO 27020G24KT 10SM BKN060 OVC075 13/04 A2994 RMK AO1
Loading
Personal Weather Stations






























Interactive Weather Map New forecast layout! Learn more

10-Day Weather Forecast

Advertisements
Track Severe Weather on mobile